Share

Borisov, Bielorrusia

Minsk (UMMM) Alt 748 ft | 53.86 °N, 27.54 °E | Change Station

Current weather conditions updated 8 minutes ago

Mostly Cloudy
Muy nublado
57 ° F
Sensación térmica 57 ° F
N
7
Viento Variable Viento desde ESE
Amanecer 5:58 AM
Atardecer 8:13 PM
Luna Gibosa menguante

Hoy se prevé un día Más cálido que ayer.

Presión 30.01 pul
Visibilidad 6.2 Millas
Nubes Muy nublado 4000 ft
Muy nublado 20000 ft
Punto de rocío 41 ° F
Humedad 55%
Precipitaciones 0.00 pul
Espesor de la nieve No disponible.
UV 4 de una escala de 16
Polen No disponible.
Calidad del aire No disponible.
Flu Activity No disponible.
METAR UMMM 181030Z 11003MPS 9999 BKN040 BKN200 14/05 Q1016 R12/CLRD60 NOSIG RMK QFE742

More Conditions Fewer Conditions

Presión 30.01 pul
Visibilidad 6.2 Millas
Nubes Muy nublado 4000 ft
Muy nublado 20000 ft
Punto de rocío 41 ° F
Humedad 55%
Precipitaciones 0.00 pul
Espesor de la nieve No disponible.
UV 4 de una escala de 16
Polen No disponible.
Calidad del aire No disponible.
Flu Activity No disponible.
METAR UMMM 181030Z 11003MPS 9999 BKN040 BKN200 14/05 Q1016 R12/CLRD60 NOSIG RMK QFE742

More Conditions Fewer Conditions

10-Day Forecast

Almanac

Astronomía

Apr. 18, 2014 Salida Puesta
Hora real 5:58 AM FET 8:13 PM FET
Crepúsculo civil 5:19 AM FET 8:52 PM FET
Crepúsculo náutico 4:30 AM FET 9:42 PM FET
Crepúsculo astronómico 3:32 AM FET 10:41 PM FET
Luna Sin salida de luna 7:43 AM FET
Horas de luz 15h 33m
Horas de luz
14h 15m
Tomorrow will be 4m 12s longer.
Gibosa menguante, 89% of the Moon is Illuminated
Hoy
Gibosa menguante
Abr 22
Cuarto menguante
Abr 29
Nueva
May 6
Cuarto creciente
May 14
Luna llena

Extremos de ayer

Máximos del país Bajas del país

Community

  • SUNRISE THROUGH THE TREES.
    SUNRISE THROUGH THE TREES.
  • Dog Wood Blossoms
    Dog Wood Blossoms
  • Morning Light
    Morning Light
  • New Day
    New Day
  • Lake Michigan Sunrise
    Lake Michigan Sunrise

WunderPhotos

Upload Photos

1,702,306 ¡fotos cargadas!

Nearby

Calidad del aire

Not available.

Grosos de nieve

Not available.

Temperaturas de aguas costeras

Lugar Temperatura
Sin partes meteorológicos de las estaciones

Actividad de terremotos

Ciudad Distance Mag. Tiempo y dato
No hay informes recientes de la actividad sísmica.
Magnitud mínima muestra es 2,5.

Estaciones meteorológicas cercanas

No hay estaciones meteorológicas personales en esta zona.

What do you think?

We're not finished. Please let us know what you like, what you don't like, and what you are still missing.